Strona główna
METAR-TAF:

METAR-TAF

Lotnisko :

Port lotniczy Stuttgart

Stuttgart, Niemcy

Szerokość geograficzna: 48-41N, Długość geograficzna: 009-13E, wysokość: 396 m

Aktualna obserwacja pogody

Raport powstał 34 minut temu, godzina 11:20 UTC
Wiatr 2 kt z kierunków zmiennych
Temperatura 12°C
Wilgotność 71%
Ciśnienie 1009 hPa
Widzialność 10 km lub więcej
Brak chmur poniżej 1500 m i brak chmur cumulonimbus

METAR: EDDS 161120Z VRB02KT CAVOK 12/07 Q1009 NOSIG

czas: 12:54 (11:54 UTC)

Prognoza

Raport powstał 54 minut temu, godzina 11:00 UTC
Prognoza ważna od 16 godzina 12 UTC do 17 godzina 12 UTC
Wiatr 3 kt z kierunków zmiennych
Widzialność 10 km lub więcej
Brak chmur poniżej 1500 m i brak chmur cumulonimbus

TAF: EDDS 161100Z 1612/1712 VRB03KT CAVOK

Obserwacja i prognoza pogody dla ponad 4000 lotnisk (raport METAR i TAF).

Dostępne stacje oznaczono żółtymi i czerwonymi punktami na mapie.

Najedź kursorem aby zobaczyć nazwę stacji.

Kliknij aby zobaczyć obserwacje i prognozy pogody.

Aby zmienić mapę: kliknij na zielony przycisk z czarnym krzyżykiem, aby powiększyć; na zielony przycisk z myślnikiem, aby pomniejszyć; na zielone strzałki, aby przejść do map sąsiednich.


METAR-TAF: